• Join FlightAware (Why Join?)
  • Login
  • US Flag 
04:56AM EDT


 

Airport Tracker/Info


-or-


 

Live Flight TrackerFlight Track Log ✈ UAL3272 ✈ 04-Apr-2013 ✈ CYYZ - KCLE

Flight Track Log - Related Links

Times and Time Zones

All times are in EDT time to prevent confusion due to time zone crossing. See the UAL3272 flight status page for this flight to view local times or setup timezone preferences in your user account.

Time Position Orientation Groundspeed Altitude Reporting Facility
EDT Latitude Longitude Course Direction KTS MPH feet Rate Location/Type
06:41AM 43.6833 -79.6333 115° Southeast 280 322 500  Level Toronto Center
06:43AM 43.6667 -79.5833 115° Southeast 10 12 500 60 Level Toronto Center
06:44AM 43.6500 -79.5833 180° South 140 161 800 960 Climbing Toronto Center
06:45AM 43.6167 -79.6333 227° Southwest 190 219 2,800 2,400 Climbing Toronto Center
06:46AM 43.5667 -79.6833 216° Southwest 230 265 5,600 2,700 Climbing Toronto Center
06:47AM 43.5000 -79.6833 180° South 260 299 8,300 2,400 Climbing Toronto Center
06:48AM 43.4167 -79.6833 180° South 280 322 10,500 1,980 Climbing Toronto Center
06:49AM 43.3500 -79.7500 216° Southwest 300 345 12,300 1,800 Climbing Toronto Center
06:50AM 43.2833 -79.8000 209° Southwest 310 357 14,200 1,800 Climbing Toronto Center
06:51AM 43.2000 -79.8667 210° Southwest 320 368 16,000 1,740 Climbing Toronto Center
06:52AM 43.1167 -79.9333 210° Southwest 330 380 17,700 960 Climbing Toronto Center
06:53AM 43.0333 -80.0000 210° Southwest 340 391 18,000 120 Climbing Toronto Center
06:54AM 42.9500 -80.0667 210° Southwest 330 380 18,000  Level Toronto Center
06:55AM 42.8667 -80.1167 204° Southwest 340 391 18,000  Level Toronto Center
06:56AM 42.8408 -80.1697 236° Southwest 342 394 18,000  Level Cleveland Center
06:57AM 42.7578 -80.2325 209° Southwest 342 394 18,000  Level Cleveland Center
06:58AM 42.6808 -80.2950 211° Southwest 328 377 18,000  Level Cleveland Center
06:59AM 42.5997 -80.3547 208° Southwest 328 377 18,000  Level Cleveland Center
07:00AM 42.5206 -80.4169 210° Southwest 333 383 18,000  Level Cleveland Center
07:01AM 42.4372 -80.4764 208° Southwest 333 383 18,000  Level Cleveland Center
07:02AM 42.3478 -80.5439 209° Southwest 338 389 18,000  Level Cleveland Center
07:03AM 42.2664 -80.6083 210° Southwest 333 383 18,000 -360 Level Cleveland Center
07:04AM 42.1808 -80.6700 208° Southwest 339 390 17,300 -1,320 Descending Cleveland Center
07:05AM 42.0953 -80.7369 210° Southwest 350 403 15,400 -1,680 Descending Cleveland Center
07:06AM 42.0097 -80.8011 209° Southwest 356 410 14,000 -1,080 Descending Cleveland Center
07:07AM 41.9325 -80.8594 209° Southwest 343 395 13,300 -1,200 Descending Cleveland Center
07:08AM 41.8511 -80.9175 208° Southwest 337 388 11,600 -1,200 Descending Cleveland Center
07:09AM 41.7739 -80.9758 209° Southwest 332 382 11,000 -300 Descending Cleveland Center
07:10AM 41.7069 -81.0392 215° Southwest 319 367 11,000 -360 Level Cleveland Center
07:10AM 41.6878 -81.1003 247° West 285 328 10,500 -840 Descending Cleveland Center
07:11AM 41.6794 -81.1281 248° West 281 323 10,200 -540 Descending Cleveland Center
07:11AM 41.6622 -81.2031 253° West 291 335 10,000 -240 Descending Cleveland Center
07:12AM 41.6539 -81.2278 246° West 286 329 10,000 -300 Level Cleveland Center
07:12AM 41.6344 -81.3083 252° West 279 321 9,700 -540 Descending Cleveland Center
07:13AM 41.6303 -81.3250 252° West 286 329 9,500 -840 Descending Cleveland Center
07:13AM 41.6089 -81.3969 248° West 253 291 8,900 -840 Descending Cleveland Center
07:14AM 41.6067 -81.4133 260° West 271 312 8,700 -1,140 Descending Cleveland Center
07:14AM 41.5875 -81.4881 251° West 255 293 7,800 -1,140 Descending Cleveland Center
07:15AM 41.5811 -81.5047 243° Southwest 265 305 7,600 -1,200 Descending Cleveland Center
07:15AM 41.5617 -81.5822 251° West 255 293 6,600 -1,380 Descending Cleveland Center
07:16AM 41.5294 -81.6706 244° Southwest 239 275 5,100 -1,440 Descending Cleveland Center
07:18AM 41.4872 -81.7361 229° Southwest 235 270 3,600 -1,500 Descending Cleveland Center
07:18AM 41.4533 -81.7883 229° Southwest 187 215 2,200 -1,200 Descending Cleveland Center
07:19AM 41.4300 -81.8239 229° Southwest 113 130 1,400 -840 Descending Cleveland Center
07:21AM 41.4000 -81.8500 242° Southwest  Level FlightAware Approximate
07:28AM 41.4094 -81.8547 242° Southwest  Level Estimated